sensor_id;sensor_type;location;lat;lon;timestamp;pressure;altitude;pressure_sealevel;temperature;humidity
74310;BME280;62722;51.142;17.052;2023-04-25T00:02:13;99260.88;;;10.34;74.34
74310;BME280;62722;51.142;17.052;2023-04-25T00:04:41;99262.19;;;10.28;73.32
74310;BME280;62722;51.142;17.052;2023-04-25T00:07:09;99255.25;;;10.27;73.85
74310;BME280;62722;51.142;17.052;2023-04-25T00:09:38;99263.03;;;10.29;74.45
74310;BME280;62722;51.142;17.052;2023-04-25T00:12:06;99260.75;;;10.24;74.29
74310;BME280;62722;51.142;17.052;2023-04-25T00:14:33;99260.06;;;10.22;74.50
74310;BME280;62722;51.142;17.052;2023-04-25T00:17:01;99264.38;;;10.23;73.86
74310;BME280;62722;51.142;17.052;2023-04-25T00:19:28;99271.56;;;10.21;73.12
74310;BME280;62722;51.142;17.052;2023-04-25T00:21:55;99267.38;;;10.18;72.66
74310;BME280;62722;51.142;17.052;2023-04-25T00:24:23;99265.69;;;10.17;72.92
74310;BME280;62722;51.142;17.052;2023-04-25T00:26:52;99275.38;;;10.17;73.79
74310;BME280;62722;51.142;17.052;2023-04-25T00:29:19;99265.81;;;10.16;73.90
74310;BME280;62722;51.142;17.052;2023-04-25T00:31:46;99276.13;;;10.19;73.70
74310;BME280;62722;51.142;17.052;2023-04-25T00:34:14;99275.13;;;10.20;72.93
74310;BME280;62722;51.142;17.052;2023-04-25T00:36:41;99279.00;;;10.16;74.17
74310;BME280;62722;51.142;17.052;2023-04-25T00:39:09;99272.91;;;10.15;73.36
74310;BME280;62722;51.142;17.052;2023-04-25T00:41:37;99270.34;;;10.14;73.26
74310;BME280;62722;51.142;17.052;2023-04-25T00:44:08;99274.91;;;10.12;72.41
74310;BME280;62722;51.142;17.052;2023-04-25T00:46:37;99271.88;;;10.05;72.36
74310;BME280;62722;51.142;17.052;2023-04-25T00:49:05;99276.09;;;10.08;73.12
74310;BME280;62722;51.142;17.052;2023-04-25T00:51:33;99271.88;;;10.05;72.78
74310;BME280;62722;51.142;17.052;2023-04-25T00:54:01;99276.81;;;9.99;73.07
74310;BME280;62722;51.142;17.052;2023-04-25T00:56:28;99275.13;;;9.98;72.94
74310;BME280;62722;51.142;17.052;2023-04-25T00:58:56;99277.75;;;9.98;72.81
74310;BME280;62722;51.142;17.052;2023-04-25T01:01:25;99269.03;;;9.97;72.50
74310;BME280;62722;51.142;17.052;2023-04-25T01:03:53;99281.38;;;9.97;72.56
74310;BME280;62722;51.142;17.052;2023-04-25T01:06:21;99277.06;;;9.96;72.39
74310;BME280;62722;51.142;17.052;2023-04-25T01:08:49;99281.13;;;9.89;72.45
74310;BME280;62722;51.142;17.052;2023-04-25T01:11:16;99275.38;;;9.84;71.87
74310;BME280;62722;51.142;17.052;2023-04-25T01:13:44;99281.63;;;9.83;72.56
74310;BME280;62722;51.142;17.052;2023-04-25T01:16:11;99284.38;;;9.81;72.79
74310;BME280;62722;51.142;17.052;2023-04-25T01:18:40;99282.56;;;9.82;72.63
74310;BME280;62722;51.142;17.052;2023-04-25T01:21:10;99286.41;;;9.77;72.72
74310;BME280;62722;51.142;17.052;2023-04-25T01:23:39;99284.47;;;9.79;72.37
74310;BME280;62722;51.142;17.052;2023-04-25T01:26:09;99287.25;;;9.78;72.62
74310;BME280;62722;51.142;17.052;2023-04-25T01:28:37;99284.84;;;9.75;72.18
74310;BME280;62722;51.142;17.052;2023-04-25T01:31:05;99287.50;;;9.75;72.43
74310;BME280;62722;51.142;17.052;2023-04-25T01:33:33;99294.66;;;9.73;72.21
74310;BME280;62722;51.142;17.052;2023-04-25T01:36:00;99296.44;;;9.72;72.06
74310;BME280;62722;51.142;17.052;2023-04-25T01:38:29;99301.84;;;9.71;71.44
74310;BME280;62722;51.142;17.052;2023-04-25T01:40:56;99296.69;;;9.69;71.84
74310;BME280;62722;51.142;17.052;2023-04-25T01:43:25;99300.28;;;9.68;71.56
74310;BME280;62722;51.142;17.052;2023-04-25T01:45:52;99296.34;;;9.63;71.29
74310;BME280;62722;51.142;17.052;2023-04-25T01:48:19;99295.00;;;9.57;70.84
74310;BME280;62722;51.142;17.052;2023-04-25T01:50:47;99288.06;;;9.56;71.24
74310;BME280;62722;51.142;17.052;2023-04-25T01:53:15;99289.00;;;9.55;71.79
74310;BME280;62722;51.142;17.052;2023-04-25T01:55:44;99292.59;;;9.54;71.36
74310;BME280;62722;51.142;17.052;2023-04-25T01:58:11;99290.31;;;9.50;71.72
74310;BME280;62722;51.142;17.052;2023-04-25T02:00:38;99293.06;;;9.48;71.49
74310;BME280;62722;51.142;17.052;2023-04-25T02:03:07;99296.66;;;9.47;71.24
74310;BME280;62722;51.142;17.052;2023-04-25T02:05:35;99297.13;;;9.41;71.13
74310;BME280;62722;51.142;17.052;2023-04-25T02:08:05;99303.34;;;9.40;71.15
74310;BME280;62722;51.142;17.052;2023-04-25T02:10:33;99316.75;;;9.37;71.35
74310;BME280;62722;51.142;17.052;2023-04-25T02:13:02;99304.78;;;9.33;71.84
74310;BME280;62722;51.142;17.052;2023-04-25T02:15:30;99300.22;;;9.35;71.82
74310;BME280;62722;51.142;17.052;2023-04-25T02:17:57;99309.31;;;9.31;71.74
74310;BME280;62722;51.142;17.052;2023-04-25T02:20:26;99306.69;;;9.31;72.03
74310;BME280;62722;51.142;17.052;2023-04-25T02:22:54;99298.53;;;9.23;71.62
74310;BME280;62722;51.142;17.052;2023-04-25T02:25:22;99304.50;;;9.25;72.08
74310;BME280;62722;51.142;17.052;2023-04-25T02:27:49;99304.63;;;9.23;72.18
74310;BME280;62722;51.142;17.052;2023-04-25T02:30:18;99291.22;;;9.15;72.47
74310;BME280;62722;51.142;17.052;2023-04-25T02:32:46;99297.50;;;9.13;72.36
74310;BME280;62722;51.142;17.052;2023-04-25T02:35:13;99293.94;;;9.14;72.79
74310;BME280;62722;51.142;17.052;2023-04-25T02:37:41;99298.34;;;9.13;72.99
74310;BME280;62722;51.142;17.052;2023-04-25T02:40:09;99295.63;;;9.15;72.60
74310;BME280;62722;51.142;17.052;2023-04-25T02:42:37;99299.19;;;9.14;72.72
74310;BME280;62722;51.142;17.052;2023-04-25T02:45:05;99304.47;;;9.14;73.01
74310;BME280;62722;51.142;17.052;2023-04-25T02:47:35;99300.38;;;9.10;73.67
74310;BME280;62722;51.142;17.052;2023-04-25T02:50:03;99299.66;;;9.08;73.00
74310;BME280;62722;51.142;17.052;2023-04-25T02:52:30;99305.78;;;9.08;73.38
74310;BME280;62722;51.142;17.052;2023-04-25T02:54:57;99296.72;;;9.12;74.54
74310;BME280;62722;51.142;17.052;2023-04-25T02:57:25;99305.66;;;9.10;74.22
74310;BME280;62722;51.142;17.052;2023-04-25T02:59:53;99294.16;;;9.11;74.30
74310;BME280;62722;51.142;17.052;2023-04-25T03:02:20;99300.38;;;9.10;74.41
74310;BME280;62722;51.142;17.052;2023-04-25T03:04:49;99299.78;;;9.06;73.80
74310;BME280;62722;51.142;17.052;2023-04-25T03:07:16;99292.72;;;9.07;74.35
74310;BME280;62722;51.142;17.052;2023-04-25T03:09:43;99292.72;;;9.07;74.64
74310;BME280;62722;51.142;17.052;2023-04-25T03:12:11;99289.38;;;9.05;74.29
74310;BME280;62722;51.142;17.052;2023-04-25T03:14:38;99283.59;;;9.00;74.10
74310;BME280;62722;51.142;17.052;2023-04-25T03:17:06;99293.28;;;8.99;74.79
74310;BME280;62722;51.142;17.052;2023-04-25T03:19:33;99291.50;;;9.00;74.61
74310;BME280;62722;51.142;17.052;2023-04-25T03:22:02;99288.16;;;8.98;74.59
74310;BME280;62722;51.142;17.052;2023-04-25T03:24:29;99286.47;;;8.97;75.41
74310;BME280;62722;51.142;17.052;2023-04-25T03:26:56;99290.06;;;8.96;74.81
74310;BME280;62722;51.142;17.052;2023-04-25T03:29:23;99282.50;;;8.91;75.02
74310;BME280;62722;51.142;17.052;2023-04-25T03:31:52;99297.44;;;8.91;75.58
74310;BME280;62722;51.142;17.052;2023-04-25T03:34:19;99301.47;;;8.84;75.40
74310;BME280;62722;51.142;17.052;2023-04-25T03:36:48;99305.28;;;8.79;74.98
74310;BME280;62722;51.142;17.052;2023-04-25T03:39:16;99300.00;;;8.79;75.79
74310;BME280;62722;51.142;17.052;2023-04-25T03:41:44;99303.72;;;8.77;76.35
74310;BME280;62722;51.142;17.052;2023-04-25T03:44:11;99300.25;;;8.76;76.10
74310;BME280;62722;51.142;17.052;2023-04-25T03:46:39;99306.69;;;8.72;75.95
74310;BME280;62722;51.142;17.052;2023-04-25T03:49:06;99302.41;;;8.71;76.49
74310;BME280;62722;51.142;17.052;2023-04-25T03:51:33;99305.13;;;8.70;75.84
74310;BME280;62722;51.142;17.052;2023-04-25T03:54:00;99312.31;;;8.68;75.31
74310;BME280;62722;51.142;17.052;2023-04-25T03:56:29;99314.69;;;8.71;75.56
74310;BME280;62722;51.142;17.052;2023-04-25T03:58:57;99319.03;;;8.72;75.81
74310;BME280;62722;51.142;17.052;2023-04-25T04:01:24;99319.84;;;8.72;76.23
74310;BME280;62722;51.142;17.052;2023-04-25T04:03:51;99307.66;;;8.71;76.00
74310;BME280;62722;51.142;17.052;2023-04-25T04:06:19;99312.91;;;8.71;75.60
74310;BME280;62722;51.142;17.052;2023-04-25T04:08:46;99319.72;;;8.74;75.60
74310;BME280;62722;51.142;17.052;2023-04-25T04:11:14;99321.53;;;8.73;75.71
74310;BME280;62722;51.142;17.052;2023-04-25T04:13:42;99323.91;;;8.76;76.09
74310;BME280;62722;51.142;17.052;2023-04-25T04:16:10;99324.53;;;8.80;75.81
74310;BME280;62722;51.142;17.052;2023-04-25T04:18:37;99321.41;;;8.75;75.52
74310;BME280;62722;51.142;17.052;2023-04-25T04:21:04;99328.69;;;8.71;75.35
74310;BME280;62722;51.142;17.052;2023-04-25T04:23:32;99326.78;;;8.73;76.22
74310;BME280;62722;51.142;17.052;2023-04-25T04:25:59;99335.84;;;8.69;75.81
74310;BME280;62722;51.142;17.052;2023-04-25T04:28:26;99333.72;;;8.74;75.96
74310;BME280;62722;51.142;17.052;2023-04-25T04:30:55;99339.84;;;8.75;75.41
74310;BME280;62722;51.142;17.052;2023-04-25T04:33:23;99330.88;;;8.77;75.50
74310;BME280;62722;51.142;17.052;2023-04-25T04:35:51;99336.84;;;8.79;75.81
74310;BME280;62722;51.142;17.052;2023-04-25T04:38:19;99340.94;;;8.84;75.73
74310;BME280;62722;51.142;17.052;2023-04-25T04:40:47;99333.03;;;8.84;75.07
74310;BME280;62722;51.142;17.052;2023-04-25T04:43:16;99338.31;;;8.84;75.33
74310;BME280;62722;51.142;17.052;2023-04-25T04:45:44;99338.66;;;8.79;75.55
74310;BME280;62722;51.142;17.052;2023-04-25T04:48:13;99342.84;;;8.82;76.13
74310;BME280;62722;51.142;17.052;2023-04-25T04:50:43;99345.59;;;8.80;74.70
74310;BME280;62722;51.142;17.052;2023-04-25T04:53:11;99339.28;;;8.83;74.77
74310;BME280;62722;51.142;17.052;2023-04-25T04:55:39;99336.66;;;8.83;75.84
74310;BME280;62722;51.142;17.052;2023-04-25T04:58:06;99334.03;;;8.83;74.85
74310;BME280;62722;51.142;17.052;2023-04-25T05:00:34;99336.41;;;8.86;74.79
74310;BME280;62722;51.142;17.052;2023-04-25T05:03:01;99338.81;;;8.89;75.05
74310;BME280;62722;51.142;17.052;2023-04-25T05:05:30;99339.75;;;8.88;74.13
74310;BME280;62722;51.142;17.052;2023-04-25T05:07:57;99339.44;;;8.92;74.02
74310;BME280;62722;51.142;17.052;2023-04-25T05:10:25;99335.13;;;8.91;74.04
74310;BME280;62722;51.142;17.052;2023-04-25T05:12:52;99340.28;;;8.93;74.06
74310;BME280;62722;51.142;17.052;2023-04-25T05:15:20;99344.38;;;8.97;73.93
74310;BME280;62722;51.142;17.052;2023-04-25T05:17:47;99345.22;;;8.97;73.42
74310;BME280;62722;51.142;17.052;2023-04-25T05:20:15;99339.34;;;8.94;73.59
74310;BME280;62722;51.142;17.052;2023-04-25T05:22:45;99341.28;;;9.03;73.44
74310;BME280;62722;51.142;17.052;2023-04-25T05:25:13;99341.66;;;9.09;73.60
74310;BME280;62722;51.142;17.052;2023-04-25T05:27:40;99348.38;;;9.13;73.24
74310;BME280;62722;51.142;17.052;2023-04-25T05:30:08;99345.66;;;9.15;72.73
74310;BME280;62722;51.142;17.052;2023-04-25T05:32:35;99348.59;;;9.10;71.77
74310;BME280;62722;51.142;17.052;2023-04-25T05:35:03;99339.63;;;9.13;72.10
74310;BME280;62722;51.142;17.052;2023-04-25T05:37:32;99340.38;;;9.15;71.76
74310;BME280;62722;51.142;17.052;2023-04-25T05:40:02;99340.88;;;9.20;71.53
74310;BME280;62722;51.142;17.052;2023-04-25T05:42:32;99341.59;;;9.22;71.30
74310;BME280;62722;51.142;17.052;2023-04-25T05:44:59;99352.63;;;9.27;71.66
74310;BME280;62722;51.142;17.052;2023-04-25T05:47:27;99337.41;;;9.19;70.98
74310;BME280;62722;51.142;17.052;2023-04-25T05:49:55;99341.50;;;9.23;71.45
74310;BME280;62722;51.142;17.052;2023-04-25T05:52:22;99347.13;;;9.30;71.64
74310;BME280;62722;51.142;17.052;2023-04-25T05:54:50;99342.09;;;9.27;71.23
74310;BME280;62722;51.142;17.052;2023-04-25T05:57:23;99342.59;;;9.32;70.76
74310;BME280;62722;51.142;17.052;2023-04-25T05:59:51;99343.69;;;9.41;71.72
74310;BME280;62722;51.142;17.052;2023-04-25T06:02:19;99343.94;;;9.38;71.36
74310;BME280;62722;51.142;17.052;2023-04-25T06:04:47;99340.31;;;9.39;70.21
74310;BME280;62722;51.142;17.052;2023-04-25T06:07:14;99346.22;;;9.42;70.46
74310;BME280;62722;51.142;17.052;2023-04-25T06:09:42;99341.78;;;9.43;70.08
74310;BME280;62722;51.142;17.052;2023-04-25T06:12:09;99349.09;;;9.50;70.22
74310;BME280;62722;51.142;17.052;2023-04-25T06:14:38;99340.50;;;9.48;69.68
74310;BME280;62722;51.142;17.052;2023-04-25T06:17:06;99345.75;;;9.48;69.77
74310;BME280;62722;51.142;17.052;2023-04-25T06:19:35;99344.22;;;9.57;69.92
74310;BME280;62722;51.142;17.052;2023-04-25T06:22:02;99334.13;;;9.51;68.69
74310;BME280;62722;51.142;17.052;2023-04-25T06:24:30;99342.78;;;9.53;68.52
74310;BME280;62722;51.142;17.052;2023-04-25T06:26:57;99351.75;;;9.61;68.64
74310;BME280;62722;51.142;17.052;2023-04-25T06:29:25;99347.50;;;9.71;69.16
74310;BME280;62722;51.142;17.052;2023-04-25T06:31:53;99344.47;;;9.76;68.22
74310;BME280;62722;51.142;17.052;2023-04-25T06:34:21;99345.09;;;9.79;67.97
74310;BME280;62722;51.142;17.052;2023-04-25T06:36:48;99344.63;;;9.86;67.12
74310;BME280;62722;51.142;17.052;2023-04-25T06:39:15;99344.38;;;9.89;67.10
74310;BME280;62722;51.142;17.052;2023-04-25T06:41:42;99342.25;;;9.83;67.40
74310;BME280;62722;51.142;17.052;2023-04-25T06:44:10;99338.16;;;9.90;68.54
74310;BME280;62722;51.142;17.052;2023-04-25T06:46:38;99342.00;;;9.97;66.34
74310;BME280;62722;51.142;17.052;2023-04-25T06:49:07;99331.91;;;9.91;65.04
74310;BME280;62722;51.142;17.052;2023-04-25T06:51:34;99336.47;;;9.89;66.96
74310;BME280;62722;51.142;17.052;2023-04-25T06:54:01;99335.75;;;9.98;67.36
74310;BME280;62722;51.142;17.052;2023-04-25T06:56:29;99331.47;;;10.08;67.09
74310;BME280;62722;51.142;17.052;2023-04-25T06:58:57;99330.91;;;10.15;66.66
74310;BME280;62722;51.142;17.052;2023-04-25T07:01:26;99326.66;;;10.13;64.38
74310;BME280;62722;51.142;17.052;2023-04-25T07:03:53;99330.97;;;10.14;65.31
74310;BME280;62722;51.142;17.052;2023-04-25T07:06:22;99322.25;;;10.24;65.77
74310;BME280;62722;51.142;17.052;2023-04-25T07:08:51;99327.66;;;10.23;64.93
74310;BME280;62722;51.142;17.052;2023-04-25T07:11:19;99318.78;;;10.24;64.31
74310;BME280;62722;51.142;17.052;2023-04-25T07:13:46;99321.06;;;10.29;64.20
74310;BME280;62722;51.142;17.052;2023-04-25T07:16:13;99326.81;;;10.34;65.23
74310;BME280;62722;51.142;17.052;2023-04-25T07:18:41;99313.28;;;10.27;63.79
74310;BME280;62722;51.142;17.052;2023-04-25T07:21:08;99324.28;;;10.32;63.31
74310;BME280;62722;51.142;17.052;2023-04-25T07:23:37;99318.16;;;10.32;63.12
74310;BME280;62722;51.142;17.052;2023-04-25T07:26:06;99317.47;;;10.30;64.40
74310;BME280;62722;51.142;17.052;2023-04-25T07:28:34;99322.38;;;10.34;62.63
74310;BME280;62722;51.142;17.052;2023-04-25T07:31:01;99323.69;;;10.29;61.57
74310;BME280;62722;51.142;17.052;2023-04-25T07:33:29;99328.59;;;10.33;61.88
74310;BME280;62722;51.142;17.052;2023-04-25T07:35:56;99330.28;;;10.34;63.08
74310;BME280;62722;51.142;17.052;2023-04-25T07:38:24;99330.63;;;10.41;62.83
74310;BME280;62722;51.142;17.052;2023-04-25T07:40:52;99330.72;;;10.50;62.46
74310;BME280;62722;51.142;17.052;2023-04-25T07:43:20;99327.75;;;10.44;61.17
74310;BME280;62722;51.142;17.052;2023-04-25T07:45:48;99332.91;;;10.45;63.17
74310;BME280;62722;51.142;17.052;2023-04-25T07:48:17;99327.25;;;10.39;62.74
74310;BME280;62722;51.142;17.052;2023-04-25T07:50:44;99325.72;;;10.25;62.57
74310;BME280;62722;51.142;17.052;2023-04-25T07:53:12;99321.66;;;10.32;62.94
74310;BME280;62722;51.142;17.052;2023-04-25T07:55:40;99322.84;;;10.28;62.89
74310;BME280;62722;51.142;17.052;2023-04-25T07:58:09;99325.97;;;10.33;63.30
74310;BME280;62722;51.142;17.052;2023-04-25T08:00:36;99332.06;;;10.45;63.05
74310;BME280;62722;51.142;17.052;2023-04-25T08:03:04;99321.88;;;10.51;63.12
74310;BME280;62722;51.142;17.052;2023-04-25T08:05:32;99318.69;;;10.68;63.89
74310;BME280;62722;51.142;17.052;2023-04-25T08:07:59;99327.69;;;10.77;63.79
74310;BME280;62722;51.142;17.052;2023-04-25T08:10:28;99328.28;;;10.69;63.67
74310;BME280;62722;51.142;17.052;2023-04-25T08:12:55;99332.03;;;10.67;63.86
74310;BME280;62722;51.142;17.052;2023-04-25T08:15:24;99323.28;;;10.55;64.92
74310;BME280;62722;51.142;17.052;2023-04-25T08:17:52;99341.41;;;10.60;63.91
74310;BME280;62722;51.142;17.052;2023-04-25T08:20:19;99335.53;;;10.56;65.05
74310;BME280;62722;51.142;17.052;2023-04-25T08:22:48;99337.41;;;10.65;64.77
74310;BME280;62722;51.142;17.052;2023-04-25T08:25:15;99330.22;;;10.67;63.87
74310;BME280;62722;51.142;17.052;2023-04-25T08:27:43;99336.81;;;10.73;65.31
74310;BME280;62722;51.142;17.052;2023-04-25T08:30:11;99344.88;;;10.71;64.14
74310;BME280;62722;51.142;17.052;2023-04-25T08:32:39;99341.75;;;10.66;63.82
74310;BME280;62722;51.142;17.052;2023-04-25T08:35:07;99341.75;;;10.66;64.09
74310;BME280;62722;51.142;17.052;2023-04-25T08:37:35;99350.47;;;10.78;63.62
74310;BME280;62722;51.142;17.052;2023-04-25T08:40:04;99338.81;;;10.81;62.94
74310;BME280;62722;51.142;17.052;2023-04-25T08:42:33;99343.59;;;10.87;63.30
74310;BME280;62722;51.142;17.052;2023-04-25T08:45:02;99343.22;;;10.91;63.99
74310;BME280;62722;51.142;17.052;2023-04-25T08:47:30;99361.44;;;10.94;63.25
74310;BME280;62722;51.142;17.052;2023-04-25T08:50:02;99345.63;;;10.94;62.35
74310;BME280;62722;51.142;17.052;2023-04-25T08:52:39;99344.81;;;10.94;62.14
74310;BME280;62722;51.142;17.052;2023-04-25T08:55:11;99342.88;;;10.96;63.96
74310;BME280;62722;51.142;17.052;2023-04-25T08:57:40;99330.25;;;10.99;62.61
74310;BME280;62722;51.142;17.052;2023-04-25T09:00:09;99339.09;;;11.09;62.23
74310;BME280;62722;51.142;17.052;2023-04-25T09:02:38;99338.34;;;11.18;62.55
74310;BME280;62722;51.142;17.052;2023-04-25T09:05:09;99340.09;;;11.29;63.09
74310;BME280;62722;51.142;17.052;2023-04-25T09:07:36;99346.53;;;11.36;62.63
74310;BME280;62722;51.142;17.052;2023-04-25T09:10:04;99356.19;;;11.26;62.76
74310;BME280;62722;51.142;17.052;2023-04-25T09:12:31;99345.63;;;11.26;62.72
74310;BME280;62722;51.142;17.052;2023-04-25T09:15:07;99344.38;;;11.41;63.99
74310;BME280;62722;51.142;17.052;2023-04-25T09:17:35;99349.88;;;11.38;61.64
74310;BME280;62722;51.142;17.052;2023-04-25T09:20:09;99343.63;;;11.39;62.51
74310;BME280;62722;51.142;17.052;2023-04-25T09:22:37;99341.25;;;11.36;61.89
74310;BME280;62722;51.142;17.052;2023-04-25T09:25:08;99344.00;;;11.35;62.53
74310;BME280;62722;51.142;17.052;2023-04-25T09:27:36;99352.34;;;11.30;61.83
74310;BME280;62722;51.142;17.052;2023-04-25T09:30:04;99349.22;;;11.25;61.79
74310;BME280;62722;51.142;17.052;2023-04-25T09:32:31;99353.28;;;11.29;61.88
74310;BME280;62722;51.142;17.052;2023-04-25T09:34:59;99359.59;;;11.17;62.97
74310;BME280;62722;51.142;17.052;2023-04-25T09:37:29;99361.47;;;11.26;63.50
74310;BME280;62722;51.142;17.052;2023-04-25T09:39:58;99354.72;;;11.33;63.41
74310;BME280;62722;51.142;17.052;2023-04-25T09:42:27;99361.75;;;11.23;62.89
74310;BME280;62722;51.142;17.052;2023-04-25T09:44:58;99364.81;;;11.28;63.24
74310;BME280;62722;51.142;17.052;2023-04-25T09:47:27;99360.50;;;11.27;63.74
74310;BME280;62722;51.142;17.052;2023-04-25T09:49:55;99360.63;;;11.26;62.39
74310;BME280;62722;51.142;17.052;2023-04-25T09:52:23;99366.50;;;11.29;62.84
74310;BME280;62722;51.142;17.052;2023-04-25T09:54:52;99362.38;;;11.36;62.29
74310;BME280;62722;51.142;17.052;2023-04-25T09:57:21;99369.16;;;11.29;62.16
74310;BME280;62722;51.142;17.052;2023-04-25T09:59:49;99365.88;;;11.37;63.08
74310;BME280;62722;51.142;17.052;2023-04-25T10:02:18;99362.13;;;11.39;61.21
74310;BME280;62722;51.142;17.052;2023-04-25T10:04:48;99369.09;;;11.61;61.67
74310;BME280;62722;51.142;17.052;2023-04-25T10:07:18;99371.25;;;11.67;59.69
74310;BME280;62722;51.142;17.052;2023-04-25T10:09:48;99376.16;;;11.71;59.93
74310;BME280;62722;51.142;17.052;2023-04-25T10:12:17;99369.41;;;11.79;58.34
74310;BME280;62722;51.142;17.052;2023-04-25T10:14:46;99367.28;;;11.61;59.52
74310;BME280;62722;51.142;17.052;2023-04-25T10:17:14;99368.97;;;11.62;60.03
74310;BME280;62722;51.142;17.052;2023-04-25T10:19:42;99364.34;;;11.76;59.15
74310;BME280;62722;51.142;17.052;2023-04-25T10:22:14;99363.31;;;11.88;58.61
74310;BME280;62722;51.142;17.052;2023-04-25T10:24:44;99367.19;;;11.84;56.52
74310;BME280;62722;51.142;17.052;2023-04-25T10:27:13;99361.06;;;11.83;56.64
74310;BME280;62722;51.142;17.052;2023-04-25T10:29:42;99360.69;;;11.88;57.79
74310;BME280;62722;51.142;17.052;2023-04-25T10:32:10;99353.31;;;11.91;56.63
74310;BME280;62722;51.142;17.052;2023-04-25T10:34:39;99357.28;;;11.97;57.06
74310;BME280;62722;51.142;17.052;2023-04-25T10:37:09;99354.53;;;12.08;57.67
74310;BME280;62722;51.142;17.052;2023-04-25T10:39:39;99363.28;;;12.08;56.75
74310;BME280;62722;51.142;17.052;2023-04-25T10:42:07;99355.41;;;12.18;56.51
74310;BME280;62722;51.142;17.052;2023-04-25T10:44:37;99355.16;;;12.21;56.72
74310;BME280;62722;51.142;17.052;2023-04-25T10:47:07;99360.56;;;12.19;57.59
74310;BME280;62722;51.142;17.052;2023-04-25T10:49:36;99357.34;;;12.16;56.57
74310;BME280;62722;51.142;17.052;2023-04-25T10:52:18;99356.44;;;12.27;57.42
74310;BME280;62722;51.142;17.052;2023-04-25T10:54:51;99347.97;;;12.42;57.27
74310;BME280;62722;51.142;17.052;2023-04-25T10:57:29;99352.41;;;12.32;55.20
74310;BME280;62722;51.142;17.052;2023-04-25T11:00:04;99340.59;;;12.36;54.59
74310;BME280;62722;51.142;17.052;2023-04-25T11:02:41;99337.66;;;12.39;56.86
74310;BME280;62722;51.142;17.052;2023-04-25T11:05:09;99335.88;;;12.49;57.13
74310;BME280;62722;51.142;17.052;2023-04-25T11:07:47;99338.00;;;12.55;55.86
74310;BME280;62722;51.142;17.052;2023-04-25T11:10:17;99338.97;;;12.54;54.60
74310;BME280;62722;51.142;17.052;2023-04-25T11:12:45;99335.59;;;12.43;55.27
74310;BME280;62722;51.142;17.052;2023-04-25T11:15:13;99332.53;;;12.38;56.32
74310;BME280;62722;51.142;17.052;2023-04-25T11:17:42;99335.75;;;12.41;56.15
74310;BME280;62722;51.142;17.052;2023-04-25T11:20:12;99338.63;;;12.38;55.72
74310;BME280;62722;51.142;17.052;2023-04-25T11:22:41;99342.75;;;12.52;56.54
74310;BME280;62722;51.142;17.052;2023-04-25T11:25:13;99336.06;;;12.57;55.08
74310;BME280;62722;51.142;17.052;2023-04-25T11:27:49;99326.91;;;12.71;55.86
74310;BME280;62722;51.142;17.052;2023-04-25T11:30:18;99331.94;;;12.84;54.66
74310;BME280;62722;51.142;17.052;2023-04-25T11:32:47;99338.63;;;12.78;51.28
74310;BME280;62722;51.142;17.052;2023-04-25T11:35:15;99337.22;;;12.84;50.09
74310;BME280;62722;51.142;17.052;2023-04-25T11:37:43;99341.72;;;12.93;51.26
74310;BME280;62722;51.142;17.052;2023-04-25T11:40:11;99344.59;;;12.90;50.36
74310;BME280;62722;51.142;17.052;2023-04-25T11:42:39;99341.16;;;12.89;50.85
74310;BME280;62722;51.142;17.052;2023-04-25T11:45:07;99354.06;;;12.83;49.63
74310;BME280;62722;51.142;17.052;2023-04-25T11:47:35;99350.13;;;12.67;48.76
74310;BME280;62722;51.142;17.052;2023-04-25T11:50:06;99343.88;;;12.59;50.43
74310;BME280;62722;51.142;17.052;2023-04-25T11:52:38;99343.72;;;12.60;51.17
74310;BME280;62722;51.142;17.052;2023-04-25T11:55:08;99346.81;;;12.65;51.03
74310;BME280;62722;51.142;17.052;2023-04-25T11:57:35;99347.34;;;12.59;50.20
74310;BME280;62722;51.142;17.052;2023-04-25T12:00:07;99341.09;;;12.70;50.80
74310;BME280;62722;51.142;17.052;2023-04-25T12:02:35;99347.66;;;12.76;50.44
74310;BME280;62722;51.142;17.052;2023-04-25T12:05:06;99347.25;;;12.90;51.50
74310;BME280;62722;51.142;17.052;2023-04-25T12:07:34;99347.00;;;12.93;49.76
74310;BME280;62722;51.142;17.052;2023-04-25T12:10:06;99348.13;;;13.00;49.48
74310;BME280;62722;51.142;17.052;2023-04-25T12:12:34;99361.22;;;13.01;50.41
74310;BME280;62722;51.142;17.052;2023-04-25T12:15:09;99353.00;;;12.95;50.89
74310;BME280;62722;51.142;17.052;2023-04-25T12:17:36;99347.84;;;13.03;49.65
74310;BME280;62722;51.142;17.052;2023-04-25T12:20:12;99346.59;;;13.07;49.81
74310;BME280;62722;51.142;17.052;2023-04-25T12:22:41;99353.72;;;12.97;49.55
74310;BME280;62722;51.142;17.052;2023-04-25T12:25:12;99356.19;;;12.98;50.20
74310;BME280;62722;51.142;17.052;2023-04-25T12:27:40;99356.88;;;12.91;49.19
74310;BME280;62722;51.142;17.052;2023-04-25T12:30:10;99352.09;;;12.75;49.17
74310;BME280;62722;51.142;17.052;2023-04-25T12:32:37;99360.06;;;12.75;49.43
74310;BME280;62722;51.142;17.052;2023-04-25T12:35:05;99349.47;;;12.75;50.08
74310;BME280;62722;51.142;17.052;2023-04-25T12:37:34;99363.72;;;12.84;50.97
74310;BME280;62722;51.142;17.052;2023-04-25T12:40:03;99358.69;;;12.90;50.22
74310;BME280;62722;51.142;17.052;2023-04-25T12:42:32;99357.59;;;12.93;50.74
74310;BME280;62722;51.142;17.052;2023-04-25T12:44:59;99361.09;;;12.93;50.39
74310;BME280;62722;51.142;17.052;2023-04-25T12:47:26;99367.22;;;13.03;51.35
74310;BME280;62722;51.142;17.052;2023-04-25T12:49:54;99357.31;;;13.05;50.49
74310;BME280;62722;51.142;17.052;2023-04-25T12:52:21;99351.53;;;13.11;51.02
74310;BME280;62722;51.142;17.052;2023-04-25T12:54:50;99356.19;;;12.98;49.20
74310;BME280;62722;51.142;17.052;2023-04-25T12:57:17;99358.16;;;12.96;49.68
74310;BME280;62722;51.142;17.052;2023-04-25T12:59:46;99357.31;;;12.96;49.32
74310;BME280;62722;51.142;17.052;2023-04-25T13:02:13;99354.28;;;13.00;49.98